South Houston, TX

10:38 AM CDT on April 18, 2015 (GMT -0500)
South Houston | | Change Station
CLOSE
Current Station
Personal Weather Station
Location: South Houston, TX
Elevation: 52 ft
Nearby Weather Stations

Elev 52 ft 29.67 °N, 95.22 °W | Updated 5 seconds ago

Overcast
Overcast
74.1 °F
Feels Like 70 °F
N
1.6
Wind Variable Wind from ENE
Gusts 4.5 mph

Today
High -- | Low -- °F
--% Chance of Precip.
Yesterday
High -- | Low -- °F
Precip. -- in
6:51 AM 7:49 PM
Waning Crescent, 0% visible
Pressure 29.90 in
Visibility 10.0 miles
Clouds Overcast 1000 ft
Heat Index 70 °F
Dew Point 74 °F
Humidity 99%
Rainfall 0.15 in
Snow Depth Not available.
UV 0.0 out of 12
Pollen .90 out of 12
Air Quality Not available.
Flu Activity Local Activity
METAR KHOU 181453Z 04005KT 10SM OVC010 22/21 A2988 RMK AO2 SLP124 T02220206 51017

More Conditions Fewer Conditions

Pressure 29.90 in
Visibility 10.0 miles
Clouds Overcast 1000 ft
Heat Index 70 °F
Dew Point 74 °F
Humidity 99%
Rainfall 0.15 in
Snow Depth Not available.
UV 0.0 out of 12
Pollen .90 out of 12
Air Quality Not available.
Flu Activity Local Activity
METAR KHOU 181453Z 04005KT 10SM OVC010 22/21 A2988 RMK AO2 SLP124 T02220206 51017

More Conditions Fewer Conditions

10-Day Weather Forecast

Almanac

Astronomy

Apr. 18, 2015 Rise Set
Actual Time
Civil Twilight
Nautical Twilight
Astronomical Twilight
Moon
Length of Visible Light
Length of Day
Tomorrow will be .
, % of the Moon is Illuminated

Today's Extremes

State Highs State Lows

Community

WunderPhotos

Upload Photos

1,814,435 photos uploaded!

WunderBlogs® & News

Nearby

Air Quality

  Air Quality AQ Index Pollutant
Not available.

Snow Depth

Station Depth Elevation

Earthquake Activity

City Distance Mag. Time & Date
Minimum magnitude displayed is 2.5.

Coastal Water Temperatures

Place Temperature

Stations

Nearby Weather Stations

Station Location Temp. Windchill Dew Point Humidity Wind Precip. Elev Updated Type